Gorgan, Iran
Current Conditions -  °F | °C
As of 9:00 AM on Saturday 25 Oct 2014 (Local Time) from OING Reporting Station
Scattered Clouds Scattered Clouds  
Wind Chill: 21°   Ceiling: Unl
Heat Index: 21°   Visibility: 6mi
Dew Point: 15°   Wind: 7mph
Humidity: 68%   Direction: 270°W
Pressure: 30.03"   Gusts: NA
Location:  36.83°N, 54.48°E
Report Text: OING 250600Z 27006KT 9999 SCT025TCU SCT040 21/15 Q1017
Loading
Personal Weather Stations






























Interactive Weather Map
Tropical Storm Tracking
New forecast layout! Learn more

10-Day Weather Forecast

Advertisements
Track Severe Weather on mobile